MAPA DE AEROPUERTO

INFORMACIÓN METAR y TAF

METAR FOR BGSF
ADDS - METARS form results

(1231 UTC 26 February 2021)
Data provider http://aviationweather.gov/metar/data/
 
METAR text: BGSF 261150Z AUTO 13001KT 9999NDV NCD M18/M21 Q0987
Conditions at: BGSF (SONDRE STROMFJOR, GL) observed 1150 UTC 26 February 2021
Temperature: -18.0°C (-0°F)
Dewpoint: -21.0°C (-6°F) [RH = 77%]
Pressure (altimeter): 29.14 inches Hg (987.0 mb)
Winds: from the SE (130 degrees) at 1 MPH (1 knots; 0.5 m/s)
Visibility: missing
Ceiling: at least 12,000 feet AGL
Clouds: sky clear below 12,000 feet AGL
Weather: no significant weather observed at this time

Forecast for: BGSF (SONDRE STROMFJOR, GL)
Text: TAF BGSF 261045Z 2612/2623 07007KT 9999 BKN150
Forecast period: 1200 to 2300 UTC 26 February 2021
Forecast type: FROM: standard forecast or significant change
Winds: from the ENE (70 degrees) at 8 MPH (7 knots; 3.6 m/s)
Visibility: 6 or more miles (10+ km)
Ceiling: 15000 feet AGL
Clouds: broken clouds at 15000 feet AGL
Weather: no significant weather forecast for this period